createdAt,value
2023-03-11T00:00:49.647Z,97939.21
2023-03-11T00:03:18.708Z,97936.36
2023-03-11T00:05:47.041Z,97935.52
2023-03-11T00:08:21.679Z,97933.31
2023-03-11T00:10:55.502Z,97929.02
2023-03-11T00:13:27.038Z,97924.08
2023-03-11T00:15:56.385Z,97920.78
2023-03-11T00:18:31.847Z,97918.02
2023-03-11T00:21:00.913Z,97914.85
2023-03-11T00:23:29.274Z,97912.78
2023-03-11T00:26:00.068Z,97912.83
2023-03-11T00:28:30.462Z,97907.20
2023-03-11T00:30:59.696Z,97903.41
2023-03-11T00:33:29.492Z,97901.58
2023-03-11T00:35:59.167Z,97900.35
2023-03-11T00:38:28.731Z,97898.09
2023-03-11T00:40:56.833Z,97894.05
2023-03-11T00:43:25.213Z,97891.70
2023-03-11T00:45:53.332Z,97883.66
2023-03-11T00:48:23.646Z,97882.35
2023-03-11T00:50:53.040Z,97879.72
2023-03-11T00:53:25.110Z,97876.80
2023-03-11T00:55:53.481Z,97876.83
2023-03-11T00:58:27.392Z,97872.73
2023-03-11T01:00:57.550Z,97862.70
2023-03-11T01:03:26.530Z,97858.67
2023-03-11T01:05:56.255Z,97853.64
2023-03-11T01:08:27.256Z,97853.82
2023-03-11T01:10:58.441Z,97850.06
2023-03-11T01:13:29.486Z,97850.64
2023-03-11T01:15:57.689Z,97844.83
2023-03-11T01:18:26.076Z,97842.27
2023-03-11T01:20:55.058Z,97842.96
2023-03-11T01:23:23.266Z,97839.02
2023-03-11T01:25:51.346Z,97833.73
2023-03-11T01:28:20.084Z,97831.38
2023-03-11T01:30:48.884Z,97828.32
2023-03-11T01:33:18.854Z,97822.63
2023-03-11T01:35:47.261Z,97820.54
2023-03-11T01:38:16.334Z,97817.90
2023-03-11T01:40:49.017Z,97816.47
2023-03-11T01:43:37.355Z,97814.20
2023-03-11T01:46:31.747Z,97814.85
2023-03-11T01:49:01.905Z,97812.77
2023-03-11T01:51:42.907Z,97807.95
2023-03-11T01:54:23.523Z,97807.95
2023-03-11T01:56:53.219Z,97805.00
2023-03-11T01:59:25.604Z,97806.58
2023-03-11T02:01:56.100Z,97803.98
2023-03-11T02:04:24.804Z,97805.39
2023-03-11T02:06:56.472Z,97801.63
2023-03-11T02:09:27.201Z,97795.99
2023-03-11T02:11:56.787Z,97795.60
2023-03-11T02:14:25.016Z,97790.54
2023-03-11T02:16:57.895Z,97790.47
2023-03-11T02:19:38.693Z,97780.91
2023-03-11T02:22:06.838Z,97783.45
2023-03-11T02:24:43.924Z,97782.45
2023-03-11T02:27:17.373Z,97784.19
2023-03-11T02:29:49.755Z,97781.77
2023-03-11T02:32:18.366Z,97783.46
2023-03-11T02:34:46.580Z,97781.30
2023-03-11T02:37:16.233Z,97783.48
2023-03-11T02:39:50.523Z,97785.73
2023-03-11T02:42:24.306Z,97781.58
2023-03-11T02:45:00.593Z,97778.63
2023-03-11T02:47:29.962Z,97777.58
2023-03-11T02:49:59.701Z,97773.82
2023-03-11T02:52:28.724Z,97771.27
2023-03-11T02:54:58.256Z,97777.30
2023-03-11T02:57:26.420Z,97767.98
2023-03-11T02:59:55.214Z,97766.77
2023-03-11T03:02:23.520Z,97761.05
2023-03-11T03:04:55.090Z,97757.22
2023-03-11T03:07:24.936Z,97750.48
2023-03-11T03:09:53.219Z,97752.26
2023-03-11T03:12:21.394Z,97745.81
2023-03-11T03:14:51.318Z,97741.48
2023-03-11T03:17:20.073Z,97741.60
2023-03-11T03:19:48.500Z,97734.08
2023-03-11T03:22:18.520Z,97738.48
2023-03-11T03:24:47.152Z,97730.79
2023-03-11T03:27:15.277Z,97731.23
2023-03-11T03:29:44.063Z,97729.59
2023-03-11T03:32:17.291Z,97727.77
2023-03-11T03:34:46.049Z,97719.27
2023-03-11T03:37:14.154Z,97718.17
2023-03-11T03:39:43.477Z,97715.70
2023-03-11T03:42:12.544Z,97710.38
2023-03-11T03:44:41.387Z,97698.20
2023-03-11T03:47:09.974Z,97697.77
2023-03-11T03:49:38.680Z,97691.40
2023-03-11T03:52:07.288Z,97685.54
2023-03-11T03:54:35.440Z,97685.69
2023-03-11T03:57:04.410Z,97681.63
2023-03-11T03:59:33.234Z,97675.58
2023-03-11T04:02:04.562Z,97673.37
2023-03-11T04:04:33.737Z,97667.98
2023-03-11T04:07:04.562Z,97664.55
2023-03-11T04:09:33.419Z,97661.56
2023-03-11T04:12:02.270Z,97656.75
2023-03-11T04:14:31.632Z,97654.20
2023-03-11T04:17:04.165Z,97649.39
2023-03-11T04:19:33.099Z,97644.25
2023-03-11T04:22:01.284Z,97641.73
2023-03-11T04:24:30.418Z,97637.64
2023-03-11T04:26:58.951Z,97631.77
2023-03-11T04:29:27.101Z,97628.83
2023-03-11T04:31:56.000Z,97622.63
2023-03-11T04:34:36.070Z,97615.91
2023-03-11T04:37:05.036Z,97613.16
2023-03-11T04:39:35.124Z,97619.17
2023-03-11T04:42:04.150Z,97616.02
2023-03-11T04:44:35.582Z,97609.79
2023-03-11T04:47:09.722Z,97608.70
2023-03-11T04:49:40.437Z,97614.86
2023-03-11T04:52:09.240Z,97610.98
2023-03-11T04:54:37.472Z,97607.54
2023-03-11T04:57:06.218Z,97598.88
2023-03-11T04:59:36.034Z,97593.09
2023-03-11T05:02:05.137Z,97590.62
2023-03-11T05:04:33.790Z,97585.58
2023-03-11T05:07:02.030Z,97582.09
2023-03-11T05:09:31.425Z,97576.50
2023-03-11T05:12:02.714Z,97572.83
2023-03-11T05:14:34.975Z,97565.71
2023-03-11T05:17:05.422Z,97571.73
2023-03-11T05:19:40.856Z,97564.98
2023-03-11T05:22:17.152Z,97560.88
2023-03-11T05:27:39.631Z,97554.58
2023-03-11T05:30:16.610Z,97551.53
2023-03-11T05:35:33.781Z,97546.03
2023-03-11T05:38:08.257Z,97543.97
2023-03-11T05:40:39.012Z,97538.59
2023-03-11T05:43:11.478Z,97536.23
2023-03-11T05:45:41.099Z,97533.63
2023-03-11T05:48:09.373Z,97537.17
2023-03-11T05:50:38.239Z,97535.88
2023-03-11T05:53:07.718Z,97535.86
2023-03-11T05:55:36.591Z,97532.83
2023-03-11T05:58:06.777Z,97533.20
2023-03-11T06:00:37.068Z,97532.98
2023-03-11T06:03:19.468Z,97529.45
2023-03-11T06:05:49.712Z,97527.04
2023-03-11T06:08:19.823Z,97525.75
2023-03-11T06:10:49.004Z,97525.09
2023-03-11T06:13:18.203Z,97528.27
2023-03-11T06:15:56.760Z,97524.04
2023-03-11T06:18:35.969Z,97519.80
2023-03-11T06:21:11.181Z,97520.77
2023-03-11T06:23:47.243Z,97521.05
2023-03-11T06:26:21.367Z,97518.86
2023-03-11T06:28:52.351Z,97518.24
2023-03-11T06:31:31.258Z,97513.60
2023-03-11T06:34:14.565Z,97510.06
2023-03-11T06:36:47.447Z,97508.53
2023-03-11T06:39:17.991Z,97504.00
2023-03-11T06:41:49.226Z,97497.94
2023-03-11T06:44:18.047Z,97493.46
2023-03-11T06:46:51.922Z,97492.11
2023-03-11T06:49:23.801Z,97487.52
2023-03-11T06:51:52.165Z,97482.80
2023-03-11T06:54:20.554Z,97480.59
2023-03-11T06:56:59.057Z,97470.13
2023-03-11T06:59:29.726Z,97466.11
2023-03-11T07:02:04.884Z,97458.91
2023-03-11T07:04:33.923Z,97448.73
2023-03-11T07:07:09.071Z,97442.52
2023-03-11T07:12:30.588Z,97428.43
2023-03-11T07:15:02.279Z,97427.03
2023-03-11T07:17:38.307Z,97424.56
2023-03-11T07:20:23.070Z,97423.96
2023-03-11T07:22:51.745Z,97428.61
2023-03-11T07:25:25.791Z,97425.31
2023-03-11T07:27:54.751Z,97423.30
2023-03-11T07:33:09.120Z,97426.67
2023-03-11T07:35:40.067Z,97423.77
2023-03-11T07:38:08.710Z,97419.93
2023-03-11T07:40:37.219Z,97417.23
2023-03-11T07:43:05.592Z,97413.29
2023-03-11T07:45:35.312Z,97410.10
2023-03-11T07:48:04.050Z,97403.77
2023-03-11T07:50:33.424Z,97396.73
2023-03-11T07:53:01.589Z,97388.98
2023-03-11T07:55:32.553Z,97381.60
2023-03-11T07:58:01.195Z,97378.98
2023-03-11T08:00:29.622Z,97372.21
2023-03-11T08:02:57.960Z,97365.77
2023-03-11T08:05:26.037Z,97362.51
2023-03-11T08:07:54.424Z,97355.81
2023-03-11T08:10:24.084Z,97355.41
2023-03-11T08:12:54.914Z,97350.58
2023-03-11T08:15:23.215Z,97350.67
2023-03-11T08:17:52.621Z,97349.98
2023-03-11T08:20:21.001Z,97339.83
2023-03-11T08:22:57.923Z,97328.35
2023-03-11T08:25:27.189Z,97316.50
2023-03-11T08:27:55.469Z,97311.55
2023-03-11T08:30:23.951Z,97314.09
2023-03-11T08:33:03.191Z,97315.10
2023-03-11T08:35:32.259Z,97311.27
2023-03-11T08:38:01.110Z,97311.69
2023-03-11T08:40:30.267Z,97308.59
2023-03-11T08:42:58.358Z,97303.84
2023-03-11T08:45:27.181Z,97301.01
2023-03-11T08:47:55.483Z,97296.86
2023-03-11T08:50:24.126Z,97298.00
2023-03-11T08:52:52.238Z,97304.35
2023-03-11T08:55:25.216Z,97303.41
2023-03-11T08:57:53.377Z,97299.11
2023-03-11T09:00:22.996Z,97299.69
2023-03-11T09:02:51.387Z,97302.17
2023-03-11T09:05:19.542Z,97298.80
2023-03-11T09:07:49.926Z,97296.73
2023-03-11T09:10:18.403Z,97288.80
2023-03-11T09:12:47.564Z,97283.20
2023-03-11T09:15:16.894Z,97279.59
2023-03-11T09:17:45.696Z,97274.95
2023-03-11T09:20:14.745Z,97267.39
2023-03-11T09:22:43.588Z,97266.24
2023-03-11T09:25:12.488Z,97263.77
2023-03-11T09:27:45.139Z,97259.09
2023-03-11T09:30:14.472Z,97250.28
2023-03-11T09:32:43.023Z,97247.84
2023-03-11T09:35:13.231Z,97246.41
2023-03-11T09:37:41.571Z,97239.15
2023-03-11T09:40:13.413Z,97233.25
2023-03-11T09:43:04.841Z,97221.92
2023-03-11T09:45:35.164Z,97213.80
2023-03-11T09:48:04.542Z,97212.52
2023-03-11T09:50:48.772Z,97213.71
2023-03-11T09:53:37.977Z,97199.26
2023-03-11T09:56:08.760Z,97187.67
2023-03-11T09:58:53.705Z,97174.64
2023-03-11T10:01:21.914Z,97172.33
2023-03-11T10:03:51.511Z,97168.10
2023-03-11T10:06:24.548Z,97165.71
2023-03-11T10:08:59.352Z,97164.80
2023-03-11T10:11:57.296Z,97150.17
2023-03-11T10:14:31.986Z,97137.20
2023-03-11T10:17:17.173Z,97134.05
2023-03-11T10:19:51.721Z,97131.21
2023-03-11T10:22:32.105Z,97127.56
2023-03-11T10:25:05.502Z,97130.42
2023-03-11T10:27:50.159Z,97131.30
2023-03-11T10:30:33.813Z,97130.27
2023-03-11T10:33:33.168Z,97126.12
2023-03-11T10:36:05.233Z,97117.41
2023-03-11T10:38:35.415Z,97113.93
2023-03-11T10:41:06.452Z,97110.11
2023-03-11T10:43:40.772Z,97108.92
2023-03-11T10:46:20.819Z,97107.86
2023-03-11T10:48:49.422Z,97098.80
2023-03-11T10:51:24.610Z,97097.95
2023-03-11T10:53:54.572Z,97092.15
2023-03-11T10:56:42.979Z,97081.95
2023-03-11T10:59:26.479Z,97073.38
2023-03-11T11:02:01.292Z,97069.14
2023-03-11T11:04:30.922Z,97062.94
2023-03-11T11:07:00.738Z,97058.70
2023-03-11T11:09:31.149Z,97055.11
2023-03-11T11:12:02.111Z,97051.40
2023-03-11T11:14:44.468Z,97046.80
2023-03-11T11:17:19.954Z,97041.09
2023-03-11T11:19:51.794Z,97033.63
2023-03-11T11:22:21.933Z,97029.13
2023-03-11T11:24:51.810Z,97021.21
2023-03-11T11:27:28.699Z,97018.58
2023-03-11T11:30:08.957Z,97020.81
2023-03-11T11:32:38.781Z,97011.73
2023-03-11T11:35:16.741Z,97002.38
2023-03-11T11:37:54.089Z,97001.39
2023-03-11T11:40:29.139Z,96995.91
2023-03-11T11:43:06.137Z,96998.98
2023-03-11T11:45:36.140Z,96992.73
2023-03-11T11:48:19.912Z,96990.67
2023-03-11T11:51:21.756Z,96987.33
2023-03-11T11:53:55.821Z,96987.00
2023-03-11T11:56:25.687Z,96985.30
2023-03-11T11:58:54.886Z,96983.50
2023-03-11T12:01:40.342Z,96979.84
2023-03-11T12:04:27.532Z,96974.45
2023-03-11T12:07:01.429Z,96974.05
2023-03-11T12:09:58.619Z,96968.30
2023-03-11T12:12:37.184Z,96971.03
2023-03-11T12:15:08.235Z,96972.30
2023-03-11T12:17:38.470Z,96972.83
2023-03-11T12:20:24.486Z,96969.20
2023-03-11T12:23:08.008Z,96968.97
2023-03-11T12:26:03.593Z,96962.00
2023-03-11T12:28:40.971Z,96961.56
2023-03-11T12:31:10.882Z,96960.80
2023-03-11T12:33:50.675Z,96960.57
2023-03-11T12:36:35.188Z,96961.58
2023-03-11T12:39:07.253Z,96954.89
2023-03-11T12:41:42.321Z,96958.17
2023-03-11T12:47:19.190Z,96949.79
2023-03-11T12:52:58.087Z,96941.59
2023-03-11T12:55:36.593Z,96932.95
2023-03-11T12:58:30.491Z,96931.27
2023-03-11T13:01:17.618Z,96930.05
2023-03-11T13:04:09.044Z,96925.06
2023-03-11T13:07:01.038Z,96923.64
2023-03-11T13:10:04.847Z,96920.66
2023-03-11T13:12:40.735Z,96915.84
2023-03-11T13:15:22.688Z,96917.96
2023-03-11T13:18:14.032Z,96916.22
2023-03-11T13:20:51.787Z,96914.12
2023-03-11T13:23:22.823Z,96909.46
2023-03-11T13:25:55.844Z,96908.13
2023-03-11T13:28:46.463Z,96905.95
2023-03-11T13:34:53.827Z,96901.45
2023-03-11T13:37:50.768Z,96894.97
2023-03-11T13:40:39.340Z,96890.70
2023-03-11T13:43:12.176Z,96892.66
2023-03-11T13:45:41.303Z,96890.08
2023-03-11T13:48:45.444Z,96885.55
2023-03-11T13:51:44.297Z,96878.83
2023-03-11T13:54:20.264Z,96876.14
2023-03-11T13:56:55.073Z,96873.81
2023-03-11T13:59:24.371Z,96873.05
2023-03-11T14:01:54.087Z,96875.61
2023-03-11T14:04:29.561Z,96868.67
2023-03-11T14:06:58.255Z,96870.06
2023-03-11T14:09:32.037Z,96864.06
2023-03-11T14:12:07.891Z,96859.25
2023-03-11T14:14:51.219Z,96856.09
2023-03-11T14:17:27.596Z,96853.87
2023-03-11T14:20:07.088Z,96856.06
2023-03-11T14:22:35.253Z,96853.36
2023-03-11T14:25:08.886Z,96855.06
2023-03-11T14:27:38.186Z,96856.41
2023-03-11T14:30:06.851Z,96857.34
2023-03-11T14:35:21.351Z,96858.23
2023-03-11T14:37:53.938Z,96856.45
2023-03-11T14:40:25.914Z,96854.80
2023-03-11T14:43:01.977Z,96854.82
2023-03-11T14:45:32.869Z,96853.41
2023-03-11T14:48:17.305Z,96855.18
2023-03-11T14:50:49.664Z,96856.31
2023-03-11T14:53:22.505Z,96856.52
2023-03-11T14:55:51.974Z,96858.61
2023-03-11T14:58:24.060Z,96854.48
2023-03-11T15:01:01.271Z,96855.05
2023-03-11T15:03:39.734Z,96848.48
2023-03-11T15:06:15.156Z,96845.70
2023-03-11T15:08:46.404Z,96845.73
2023-03-11T15:11:15.394Z,96846.05
2023-03-11T15:13:46.544Z,96842.80
2023-03-11T15:16:26.763Z,96839.91
2023-03-11T15:18:54.878Z,96842.10
2023-03-11T15:21:28.574Z,96840.35
2023-03-11T15:24:06.565Z,96836.39
2023-03-11T15:26:35.918Z,96837.41
2023-03-11T15:29:13.195Z,96833.27
2023-03-11T15:31:46.879Z,96839.86
2023-03-11T15:34:18.178Z,96842.83
2023-03-11T15:36:50.378Z,96844.31
2023-03-11T15:39:29.043Z,96840.40
2023-03-11T15:42:02.127Z,96846.75
2023-03-11T15:44:42.239Z,96845.66
2023-03-11T15:47:18.336Z,96853.10
2023-03-11T15:49:46.595Z,96854.31
2023-03-11T15:52:14.745Z,96859.22
2023-03-11T15:54:47.400Z,96860.89
2023-03-11T15:57:25.301Z,96862.80
2023-03-11T15:59:56.221Z,96861.79
2023-03-11T16:02:26.430Z,96866.41
2023-03-11T16:04:55.071Z,96867.12
2023-03-11T16:07:38.252Z,96866.85
2023-03-11T16:10:08.909Z,96869.98
2023-03-11T16:12:44.783Z,96866.91
2023-03-11T16:15:24.874Z,96866.73
2023-03-11T16:17:55.543Z,96864.18
2023-03-11T16:20:32.315Z,96864.59
2023-03-11T16:23:01.644Z,96856.63
2023-03-11T16:25:35.106Z,96855.09
2023-03-11T16:28:03.521Z,96854.83
2023-03-11T16:30:33.783Z,96849.69
2023-03-11T16:33:05.205Z,96850.60
2023-03-11T16:35:34.317Z,96853.42
2023-03-11T16:38:04.622Z,96851.30
2023-03-11T16:40:40.066Z,96853.91
2023-03-11T16:43:09.306Z,96854.77
2023-03-11T16:45:40.020Z,96859.41
2023-03-11T16:48:08.261Z,96861.96
2023-03-11T16:50:40.686Z,96862.69
2023-03-11T16:53:11.825Z,96868.29
2023-03-11T16:55:51.093Z,96865.52
2023-03-11T16:58:19.544Z,96864.85
2023-03-11T17:00:53.349Z,96859.02
2023-03-11T17:03:22.129Z,96856.77
2023-03-11T17:05:53.915Z,96862.73
2023-03-11T17:08:27.859Z,96859.50
2023-03-11T17:10:56.242Z,96852.67
2023-03-11T17:13:28.790Z,96855.05
2023-03-11T17:16:00.497Z,96856.61
2023-03-11T17:18:45.926Z,96849.41
2023-03-11T17:21:15.222Z,96848.41
2023-03-11T17:23:45.310Z,96847.15
2023-03-11T17:26:16.849Z,96843.85
2023-03-11T17:28:46.932Z,96846.15
2023-03-11T17:31:18.520Z,96846.92
2023-03-11T17:33:49.698Z,96847.71
2023-03-11T17:36:18.401Z,96842.46
2023-03-11T17:38:53.987Z,96839.70
2023-03-11T17:41:22.845Z,96842.52
2023-03-11T17:43:54.120Z,96849.57
2023-03-11T17:46:26.756Z,96850.41
2023-03-11T17:48:57.232Z,96848.02
2023-03-11T17:54:10.395Z,96846.70
2023-03-11T17:56:42.560Z,96844.31
2023-03-11T17:59:11.336Z,96841.05
2023-03-11T18:01:44.852Z,96844.77
2023-03-11T18:04:20.164Z,96839.81
2023-03-11T18:09:46.568Z,96822.36
2023-03-11T18:12:28.319Z,96813.58
2023-03-11T18:14:58.511Z,96808.58
2023-03-11T18:17:30.073Z,96805.21
2023-03-11T18:20:00.733Z,96799.15
2023-03-11T18:22:35.569Z,96797.05
2023-03-11T18:25:12.704Z,96794.87
2023-03-11T18:27:41.176Z,96797.76
2023-03-11T18:30:16.366Z,96802.92
2023-03-11T18:33:02.271Z,96803.27
2023-03-11T18:35:35.367Z,96807.19
2023-03-11T18:40:59.368Z,96816.64
2023-03-11T18:43:42.105Z,96820.34
2023-03-11T18:46:20.464Z,96822.56
2023-03-11T18:49:16.185Z,96817.83
2023-03-11T18:51:56.163Z,96816.39
2023-03-11T18:54:40.366Z,96816.99
2023-03-11T18:57:27.168Z,96816.13
2023-03-11T18:59:59.604Z,96819.54
2023-03-11T19:02:33.402Z,96821.49
2023-03-11T19:05:04.405Z,96821.31
2023-03-11T19:07:37.140Z,96823.34
2023-03-11T19:10:09.646Z,96828.84
2023-03-11T19:12:44.420Z,96826.33
2023-03-11T19:15:14.248Z,96829.11
2023-03-11T19:18:00.522Z,96833.76
2023-03-11T19:20:34.984Z,96831.52
2023-03-11T19:23:03.411Z,96831.83
2023-03-11T19:25:33.186Z,96830.06
2023-03-11T19:28:01.999Z,96832.48
2023-03-11T19:30:33.292Z,96829.13
2023-03-11T19:33:02.346Z,96819.86
2023-03-11T19:35:31.036Z,96815.16
2023-03-11T19:38:06.608Z,96815.27
2023-03-11T19:40:36.225Z,96815.62
2023-03-11T19:43:05.863Z,96813.51
2023-03-11T19:45:35.244Z,96814.84
2023-03-11T19:48:04.049Z,96815.51
2023-03-11T19:50:33.947Z,96814.89
2023-03-11T19:53:02.312Z,96813.65
2023-03-11T19:55:30.792Z,96814.83
2023-03-11T19:58:01.030Z,96812.82
2023-03-11T20:00:30.630Z,96815.73
2023-03-11T20:03:02.438Z,96817.00
2023-03-11T20:05:31.497Z,96817.27
2023-03-11T20:07:59.952Z,96819.53
2023-03-11T20:10:33.381Z,96824.63
2023-03-11T20:13:04.773Z,96829.39
2023-03-11T20:15:33.131Z,96829.44
2023-03-11T20:18:06.242Z,96829.35
2023-03-11T20:20:35.372Z,96824.55
2023-03-11T20:23:04.146Z,96825.64
2023-03-11T20:25:40.207Z,96826.56
2023-03-11T20:28:09.138Z,96826.84
2023-03-11T20:30:38.104Z,96829.83
2023-03-11T20:33:07.300Z,96832.44
2023-03-11T20:35:37.106Z,96833.50
2023-03-11T20:38:05.844Z,96832.10
2023-03-11T20:40:35.407Z,96833.38
2023-03-11T20:43:04.495Z,96827.58
2023-03-11T20:45:33.490Z,96831.15
2023-03-11T20:48:02.561Z,96829.04
2023-03-11T20:50:31.411Z,96825.39
2023-03-11T20:52:59.959Z,96825.33
2023-03-11T20:55:28.034Z,96821.27
2023-03-11T20:57:56.487Z,96817.98
2023-03-11T21:00:30.000Z,96821.55
2023-03-11T21:03:00.565Z,96822.64
2023-03-11T21:05:29.473Z,96825.29
2023-03-11T21:07:57.571Z,96831.38
2023-03-11T21:10:26.193Z,96830.21
2023-03-11T21:12:56.167Z,96832.48
2023-03-11T21:15:26.113Z,96827.57
2023-03-11T21:17:56.202Z,96823.81
2023-03-11T21:20:25.770Z,96820.04
2023-03-11T21:22:54.862Z,96820.02
2023-03-11T21:25:28.708Z,96827.30
2023-03-11T21:27:57.426Z,96828.07
2023-03-11T21:30:27.234Z,96827.25
2023-03-11T21:32:55.716Z,96827.58
2023-03-11T21:35:24.259Z,96827.39
2023-03-11T21:37:54.558Z,96828.43
2023-03-11T21:40:23.303Z,96826.44
2023-03-11T21:42:51.944Z,96825.90
2023-03-11T21:45:20.510Z,96830.79
2023-03-11T21:47:49.050Z,96831.93
2023-03-11T21:50:26.944Z,96839.93
2023-03-11T21:52:57.452Z,96843.25
2023-03-11T21:55:25.868Z,96853.05
2023-03-11T21:57:54.009Z,96851.95
2023-03-11T22:00:23.474Z,96850.98
2023-03-11T22:02:52.649Z,96852.07
2023-03-11T22:05:21.151Z,96854.05
2023-03-11T22:07:49.233Z,96854.83
2023-03-11T22:10:18.163Z,96857.73
2023-03-11T22:12:49.490Z,96862.34
2023-03-11T22:15:18.423Z,96865.53
2023-03-11T22:17:48.428Z,96867.50
2023-03-11T22:20:17.358Z,96864.26
2023-03-11T22:22:45.588Z,96864.99
2023-03-11T22:25:17.069Z,96866.02
2023-03-11T22:27:46.123Z,96869.30
2023-03-11T22:30:14.628Z,96870.21
2023-03-11T22:32:44.373Z,96869.92
2023-03-11T22:35:13.456Z,96874.09
2023-03-11T22:37:41.654Z,96875.36
2023-03-11T22:40:10.519Z,96882.70
2023-03-11T22:42:39.120Z,96884.83
2023-03-11T22:45:08.996Z,96890.33
2023-03-11T22:47:38.692Z,96892.31
2023-03-11T22:50:07.549Z,96897.02
2023-03-11T22:52:36.262Z,96900.02
2023-03-11T22:55:05.240Z,96902.81
2023-03-11T22:57:39.024Z,96904.63
2023-03-11T23:00:17.356Z,96907.23
2023-03-11T23:02:46.597Z,96914.15
2023-03-11T23:05:15.703Z,96914.33
2023-03-11T23:07:43.972Z,96917.29
2023-03-11T23:10:13.656Z,96920.50
2023-03-11T23:12:45.736Z,96915.39
2023-03-11T23:15:18.476Z,96916.69
2023-03-11T23:17:46.745Z,96915.22
2023-03-11T23:20:15.429Z,96915.61
2023-03-11T23:22:43.896Z,96920.98
2023-03-11T23:25:14.654Z,96920.65
2023-03-11T23:27:44.240Z,96922.68
2023-03-11T23:30:13.926Z,96917.31
2023-03-11T23:32:45.743Z,96920.55
2023-03-11T23:35:13.929Z,96919.70
2023-03-11T23:37:41.984Z,96923.11
2023-03-11T23:40:10.656Z,96924.38
2023-03-11T23:42:39.274Z,96923.56
2023-03-11T23:45:08.194Z,96930.40
2023-03-11T23:47:37.018Z,96932.00
2023-03-11T23:50:06.699Z,96934.61
2023-03-11T23:52:36.285Z,96932.30
2023-03-11T23:55:04.838Z,96930.95
2023-03-11T23:57:35.901Z,96933.15
